sensor_id;sensor_type;location;lat;lon;timestamp;pressure;altitude;pressure_sealevel;temperature;humidity
24762;BME280;12865;51.934;10.330;2023-03-19T00:01:44;98827.91;;;10.67;100.00
24762;BME280;12865;51.934;10.330;2023-03-19T00:04:29;98822.91;;;10.64;100.00
24762;BME280;12865;51.934;10.330;2023-03-19T00:07:15;98821.06;;;10.65;100.00
24762;BME280;12865;51.934;10.330;2023-03-19T00:10:01;98816.59;;;10.65;100.00
24762;BME280;12865;51.934;10.330;2023-03-19T00:12:47;98818.69;;;10.61;100.00
24762;BME280;12865;51.934;10.330;2023-03-19T00:15:32;98818.00;;;10.59;100.00
24762;BME280;12865;51.934;10.330;2023-03-19T00:18:18;98811.69;;;10.60;100.00
24762;BME280;12865;51.934;10.330;2023-03-19T00:21:04;98809.47;;;10.56;100.00
24762;BME280;12865;51.934;10.330;2023-03-19T00:23:50;98805.13;;;10.55;100.00
24762;BME280;12865;51.934;10.330;2023-03-19T00:26:36;98808.78;;;10.54;100.00
24762;BME280;12865;51.934;10.330;2023-03-19T00:29:22;98806.56;;;10.49;100.00
24762;BME280;12865;51.934;10.330;2023-03-19T00:32:07;98806.72;;;10.48;100.00
24762;BME280;12865;51.934;10.330;2023-03-19T00:34:53;98805.19;;;10.45;100.00
24762;BME280;12865;51.934;10.330;2023-03-19T00:37:40;98799.56;;;10.48;100.00
24762;BME280;12865;51.934;10.330;2023-03-19T00:40:26;98805.72;;;10.49;100.00
24762;BME280;12865;51.934;10.330;2023-03-19T00:43:11;98803.34;;;10.46;100.00
24762;BME280;12865;51.934;10.330;2023-03-19T00:45:59;98801.25;;;10.49;100.00
24762;BME280;12865;51.934;10.330;2023-03-19T00:48:45;98810.59;;;10.53;100.00
24762;BME280;12865;51.934;10.330;2023-03-19T00:51:31;98806.25;;;10.52;100.00
24762;BME280;12865;51.934;10.330;2023-03-19T00:54:16;98805.03;;;10.47;100.00
24762;BME280;12865;51.934;10.330;2023-03-19T00:57:02;98805.19;;;10.45;100.00
24762;BME280;12865;51.934;10.330;2023-03-19T00:59:48;98809.84;;;10.43;100.00
24762;BME280;12865;51.934;10.330;2023-03-19T01:02:33;98806.09;;;10.36;100.00
24762;BME280;12865;51.934;10.330;2023-03-19T01:05:19;98805.78;;;10.39;100.00
24762;BME280;12865;51.934;10.330;2023-03-19T01:08:05;98812.03;;;10.30;100.00
24762;BME280;12865;51.934;10.330;2023-03-19T01:10:50;98797.84;;;10.30;100.00
24762;BME280;12865;51.934;10.330;2023-03-19T01:13:36;98806.28;;;10.25;100.00
24762;BME280;12865;51.934;10.330;2023-03-19T01:16:22;98802.75;;;10.24;100.00
24762;BME280;12865;51.934;10.330;2023-03-19T01:19:07;98796.78;;;10.22;100.00
24762;BME280;12865;51.934;10.330;2023-03-19T01:21:53;98794.09;;;10.22;100.00
24762;BME280;12865;51.934;10.330;2023-03-19T01:24:39;98799.69;;;10.29;100.00
24762;BME280;12865;51.934;10.330;2023-03-19T01:27:24;98801.41;;;10.20;100.00
24762;BME280;12865;51.934;10.330;2023-03-19T01:30:10;98791.28;;;10.24;100.00
24762;BME280;12865;51.934;10.330;2023-03-19T01:32:56;98793.09;;;10.23;100.00
24762;BME280;12865;51.934;10.330;2023-03-19T01:35:44;98792.69;;;10.18;100.00
24762;BME280;12865;51.934;10.330;2023-03-19T01:38:30;98792.56;;;10.20;100.00
24762;BME280;12865;51.934;10.330;2023-03-19T01:41:16;98799.97;;;10.16;100.00
24762;BME280;12865;51.934;10.330;2023-03-19T01:44:20;98802.63;;;10.16;100.00
24762;BME280;12865;51.934;10.330;2023-03-19T01:47:16;98801.69;;;10.17;100.00
24762;BME280;12865;51.934;10.330;2023-03-19T01:50:03;98810.63;;;10.16;100.00
24762;BME280;12865;51.934;10.330;2023-03-19T01:52:49;98804.47;;;10.16;100.00
24762;BME280;12865;51.934;10.330;2023-03-19T01:55:34;98804.91;;;10.11;100.00
24762;BME280;12865;51.934;10.330;2023-03-19T01:58:20;98809.25;;;10.12;100.00
24762;BME280;12865;51.934;10.330;2023-03-19T02:01:06;98801.72;;;10.08;100.00
24762;BME280;12865;51.934;10.330;2023-03-19T02:03:52;98809.00;;;10.06;100.00
24762;BME280;12865;51.934;10.330;2023-03-19T02:06:39;98804.50;;;10.06;100.00
24762;BME280;12865;51.934;10.330;2023-03-19T02:09:26;98803.94;;;10.03;100.00
24762;BME280;12865;51.934;10.330;2023-03-19T02:12:13;98797.41;;;9.97;100.00
24762;BME280;12865;51.934;10.330;2023-03-19T02:15:00;98805.69;;;9.94;100.00
24762;BME280;12865;51.934;10.330;2023-03-19T02:17:46;98798.28;;;9.88;100.00
24762;BME280;12865;51.934;10.330;2023-03-19T02:26:37;98800.13;;;9.78;100.00
24762;BME280;12865;51.934;10.330;2023-03-19T02:29:24;98804.88;;;9.74;100.00
24762;BME280;12865;51.934;10.330;2023-03-19T02:32:10;98801.94;;;9.77;100.00
24762;BME280;12865;51.934;10.330;2023-03-19T02:34:55;98800.66;;;9.81;100.00
24762;BME280;12865;51.934;10.330;2023-03-19T02:37:41;98809.63;;;9.90;100.00
24762;BME280;12865;51.934;10.330;2023-03-19T02:40:34;98808.25;;;9.86;100.00
24762;BME280;12865;51.934;10.330;2023-03-19T02:43:21;98807.25;;;9.87;100.00
24762;BME280;12865;51.934;10.330;2023-03-19T02:46:10;98803.31;;;9.81;100.00
24762;BME280;12865;51.934;10.330;2023-03-19T02:48:56;98810.66;;;9.79;100.00
24762;BME280;12865;51.934;10.330;2023-03-19T02:51:42;98805.34;;;9.70;100.00
24762;BME280;12865;51.934;10.330;2023-03-19T02:54:27;98805.19;;;9.71;100.00
24762;BME280;12865;51.934;10.330;2023-03-19T02:57:13;98802.16;;;9.57;100.00
24762;BME280;12865;51.934;10.330;2023-03-19T02:59:59;98812.66;;;9.49;100.00
24762;BME280;12865;51.934;10.330;2023-03-19T03:02:45;98806.63;;;9.56;100.00
24762;BME280;12865;51.934;10.330;2023-03-19T03:05:31;98812.34;;;9.71;100.00
24762;BME280;12865;51.934;10.330;2023-03-19T03:08:17;98808.56;;;9.64;100.00
24762;BME280;12865;51.934;10.330;2023-03-19T03:11:03;98813.91;;;9.64;100.00
24762;BME280;12865;51.934;10.330;2023-03-19T03:13:48;98815.84;;;9.62;100.00
24762;BME280;12865;51.934;10.330;2023-03-19T03:16:34;98810.66;;;9.60;100.00
24762;BME280;12865;51.934;10.330;2023-03-19T03:19:20;98813.19;;;9.62;100.00
24762;BME280;12865;51.934;10.330;2023-03-19T03:22:06;98817.28;;;9.66;100.00
24762;BME280;12865;51.934;10.330;2023-03-19T03:24:52;98815.44;;;9.66;100.00
24762;BME280;12865;51.934;10.330;2023-03-19T03:27:38;98818.53;;;9.62;100.00
24762;BME280;12865;51.934;10.330;2023-03-19T03:30:23;98818.66;;;9.60;100.00
24762;BME280;12865;51.934;10.330;2023-03-19T03:33:09;98827.91;;;9.56;100.00
24762;BME280;12865;51.934;10.330;2023-03-19T03:35:55;98823.72;;;9.54;100.00
24762;BME280;12865;51.934;10.330;2023-03-19T03:38:41;98825.53;;;9.53;100.00
24762;BME280;12865;51.934;10.330;2023-03-19T03:41:26;98829.19;;;9.52;100.00
24762;BME280;12865;51.934;10.330;2023-03-19T03:44:12;98832.69;;;9.53;100.00
24762;BME280;12865;51.934;10.330;2023-03-19T03:46:58;98830.31;;;9.59;100.00
24762;BME280;12865;51.934;10.330;2023-03-19T03:49:44;98829.03;;;9.54;100.00
24762;BME280;12865;51.934;10.330;2023-03-19T03:52:30;98824.44;;;9.46;100.00
24762;BME280;12865;51.934;10.330;2023-03-19T03:55:18;98822.91;;;9.43;100.00
24762;BME280;12865;51.934;10.330;2023-03-19T03:58:04;98822.34;;;9.40;100.00
24762;BME280;12865;51.934;10.330;2023-03-19T04:00:50;98823.03;;;9.42;100.00
24762;BME280;12865;51.934;10.330;2023-03-19T04:03:35;98830.44;;;9.58;100.00
24762;BME280;12865;51.934;10.330;2023-03-19T04:06:22;98833.09;;;9.58;100.00
24762;BME280;12865;51.934;10.330;2023-03-19T04:09:09;98830.44;;;9.58;100.00
24762;BME280;12865;51.934;10.330;2023-03-19T04:11:54;98828.06;;;9.55;100.00
24762;BME280;12865;51.934;10.330;2023-03-19T04:14:40;98822.88;;;9.53;100.00
24762;BME280;12865;51.934;10.330;2023-03-19T04:17:26;98819.94;;;9.56;100.00
24762;BME280;12865;51.934;10.330;2023-03-19T04:20:12;98816.44;;;9.56;100.00
24762;BME280;12865;51.934;10.330;2023-03-19T04:22:58;98812.22;;;9.53;100.00
24762;BME280;12865;51.934;10.330;2023-03-19T04:25:44;98821.75;;;9.56;100.00
24762;BME280;12865;51.934;10.330;2023-03-19T04:28:31;98816.44;;;9.56;100.00
24762;BME280;12865;51.934;10.330;2023-03-19T04:31:17;98822.72;;;9.55;100.00
24762;BME280;12865;51.934;10.330;2023-03-19T04:34:02;98812.78;;;9.57;100.00
24762;BME280;12865;51.934;10.330;2023-03-19T04:36:48;98815.72;;;9.63;100.00
24762;BME280;12865;51.934;10.330;2023-03-19T04:39:35;98814.44;;;9.67;100.00
24762;BME280;12865;51.934;10.330;2023-03-19T04:42:21;98815.00;;;9.71;100.00
24762;BME280;12865;51.934;10.330;2023-03-19T04:45:07;98808.97;;;9.69;100.00
24762;BME280;12865;51.934;10.330;2023-03-19T04:47:53;98809.13;;;9.67;100.00
24762;BME280;12865;51.934;10.330;2023-03-19T04:50:39;98812.22;;;9.63;100.00
24762;BME280;12865;51.934;10.330;2023-03-19T04:53:25;98818.25;;;9.65;100.00
24762;BME280;12865;51.934;10.330;2023-03-19T04:56:11;98818.09;;;9.66;100.00
24762;BME280;12865;51.934;10.330;2023-03-19T04:59:00;98818.94;;;9.67;100.00
24762;BME280;12865;51.934;10.330;2023-03-19T05:01:46;98820.59;;;9.68;100.00
24762;BME280;12865;51.934;10.330;2023-03-19T05:04:31;98814.44;;;9.67;100.00
24762;BME280;12865;51.934;10.330;2023-03-19T05:07:17;98822.28;;;9.69;100.00
24762;BME280;12865;51.934;10.330;2023-03-19T05:10:03;98822.16;;;9.70;100.00
24762;BME280;12865;51.934;10.330;2023-03-19T05:12:49;98828.59;;;9.68;100.00
24762;BME280;12865;51.934;10.330;2023-03-19T05:15:35;98825.38;;;9.64;100.00
24762;BME280;12865;51.934;10.330;2023-03-19T05:18:21;98830.44;;;9.58;100.00
24762;BME280;12865;51.934;10.330;2023-03-19T05:21:09;98832.81;;;9.61;100.00
24762;BME280;12865;51.934;10.330;2023-03-19T05:23:55;98832.66;;;9.72;100.00
24762;BME280;12865;51.934;10.330;2023-03-19T05:26:41;98837.31;;;9.51;100.00
24762;BME280;12865;51.934;10.330;2023-03-19T05:29:28;98832.00;;;9.51;100.00
24762;BME280;12865;51.934;10.330;2023-03-19T05:32:13;98845.88;;;9.44;100.00
24762;BME280;12865;51.934;10.330;2023-03-19T05:35:00;98843.47;;;9.41;100.00
24762;BME280;12865;51.934;10.330;2023-03-19T05:37:45;98848.09;;;9.39;100.00
24762;BME280;12865;51.934;10.330;2023-03-19T05:40:31;98852.75;;;9.37;100.00
24762;BME280;12865;51.934;10.330;2023-03-19T05:43:19;98852.03;;;9.35;100.00
24762;BME280;12865;51.934;10.330;2023-03-19T05:46:04;98852.03;;;9.35;100.00
24762;BME280;12865;51.934;10.330;2023-03-19T05:48:50;98845.88;;;9.35;100.00
24762;BME280;12865;51.934;10.330;2023-03-19T05:51:36;98855.09;;;9.40;100.00
24762;BME280;12865;51.934;10.330;2023-03-19T05:54:21;98853.41;;;9.39;100.00
24762;BME280;12865;51.934;10.330;2023-03-19T05:57:07;98843.63;;;9.40;100.00
24762;BME280;12865;51.934;10.330;2023-03-19T05:59:53;98855.53;;;9.36;100.00
24762;BME280;12865;51.934;10.330;2023-03-19T06:02:39;98844.63;;;9.39;100.00
24762;BME280;12865;51.934;10.330;2023-03-19T06:05:25;98850.91;;;9.38;100.00
24762;BME280;12865;51.934;10.330;2023-03-19T06:08:10;98857.94;;;9.39;100.00
24762;BME280;12865;51.934;10.330;2023-03-19T06:10:56;98856.78;;;9.41;100.00
24762;BME280;12865;51.934;10.330;2023-03-19T06:13:42;98857.19;;;9.46;100.00
24762;BME280;12865;51.934;10.330;2023-03-19T06:16:27;98859.88;;;9.37;100.00
24762;BME280;12865;51.934;10.330;2023-03-19T06:19:13;98857.34;;;9.35;100.00
24762;BME280;12865;51.934;10.330;2023-03-19T06:21:59;98861.84;;;9.35;100.00
24762;BME280;12865;51.934;10.330;2023-03-19T06:24:44;98866.31;;;9.34;100.00
24762;BME280;12865;51.934;10.330;2023-03-19T06:27:30;98872.75;;;9.41;100.00
24762;BME280;12865;51.934;10.330;2023-03-19T06:30:16;98884.38;;;9.40;100.00
24762;BME280;12865;51.934;10.330;2023-03-19T06:33:01;98879.47;;;9.45;100.00
24762;BME280;12865;51.934;10.330;2023-03-19T06:35:47;98883.41;;;9.51;100.00
24762;BME280;12865;51.934;10.330;2023-03-19T06:38:33;98889.84;;;9.58;100.00
24762;BME280;12865;51.934;10.330;2023-03-19T06:41:20;98888.00;;;9.59;100.00
24762;BME280;12865;51.934;10.330;2023-03-19T06:44:05;98899.06;;;9.64;100.00
24762;BME280;12865;51.934;10.330;2023-03-19T06:46:52;98890.09;;;9.65;100.00
24762;BME280;12865;51.934;10.330;2023-03-19T06:49:37;98890.50;;;9.70;100.00
24762;BME280;12865;51.934;10.330;2023-03-19T06:52:23;98890.63;;;9.78;100.00
24762;BME280;12865;51.934;10.330;2023-03-19T06:55:09;98892.19;;;9.80;100.00
24762;BME280;12865;51.934;10.330;2023-03-19T06:57:56;98898.75;;;9.86;100.00
24762;BME280;12865;51.934;10.330;2023-03-19T07:00:42;98900.13;;;9.90;100.00
24762;BME280;12865;51.934;10.330;2023-03-19T07:03:28;98903.78;;;9.89;100.00
24762;BME280;12865;51.934;10.330;2023-03-19T07:06:14;98907.16;;;9.91;100.00
24762;BME280;12865;51.934;10.330;2023-03-19T07:08:59;98917.94;;;9.90;100.00
24762;BME280;12865;51.934;10.330;2023-03-19T07:11:45;98924.38;;;9.97;100.00
24762;BME280;12865;51.934;10.330;2023-03-19T07:14:31;98925.53;;;9.94;100.00
24762;BME280;12865;51.934;10.330;2023-03-19T07:17:16;98926.19;;;9.96;100.00
24762;BME280;12865;51.934;10.330;2023-03-19T07:20:03;98933.59;;;10.02;100.00
24762;BME280;12865;51.934;10.330;2023-03-19T07:22:52;98934.72;;;10.09;100.00
24762;BME280;12865;51.934;10.330;2023-03-19T07:25:37;98944.38;;;10.10;100.00
24762;BME280;12865;51.934;10.330;2023-03-19T07:28:23;98947.63;;;10.14;100.00
24762;BME280;12865;51.934;10.330;2023-03-19T07:31:09;98960.25;;;10.21;100.00
24762;BME280;12865;51.934;10.330;2023-03-19T07:33:54;98967.28;;;10.22;100.00
24762;BME280;12865;51.934;10.330;2023-03-19T07:36:40;98968.66;;;10.27;100.00
24762;BME280;12865;51.934;10.330;2023-03-19T07:39:26;98978.03;;;10.31;100.00
24762;BME280;12865;51.934;10.330;2023-03-19T07:42:12;98978.84;;;10.41;100.00
24762;BME280;12865;51.934;10.330;2023-03-19T07:44:57;98975.59;;;10.56;100.00
24762;BME280;12865;51.934;10.330;2023-03-19T07:47:43;98979.34;;;10.63;100.00
24762;BME280;12865;51.934;10.330;2023-03-19T07:50:29;98992.22;;;10.68;100.00
24762;BME280;12865;51.934;10.330;2023-03-19T07:53:15;98999.47;;;10.85;100.00
24762;BME280;12865;51.934;10.330;2023-03-19T07:56:01;99001.13;;;10.86;100.00
24762;BME280;12865;51.934;10.330;2023-03-19T07:58:47;98994.72;;;10.79;100.00
24762;BME280;12865;51.934;10.330;2023-03-19T08:01:32;98993.63;;;10.72;100.00
24762;BME280;12865;51.934;10.330;2023-03-19T08:04:18;98976.38;;;10.67;100.00
24762;BME280;12865;51.934;10.330;2023-03-19T08:07:04;98965.31;;;10.61;100.00
24762;BME280;12865;51.934;10.330;2023-03-19T08:09:50;98971.22;;;10.65;100.00
24762;BME280;12865;51.934;10.330;2023-03-19T08:12:36;98969.91;;;10.69;100.00
24762;BME280;12865;51.934;10.330;2023-03-19T08:15:25;98972.44;;;10.71;100.00
24762;BME280;12865;51.934;10.330;2023-03-19T08:18:11;98976.47;;;10.75;100.00
24762;BME280;12865;51.934;10.330;2023-03-19T08:20:58;98969.19;;;10.77;100.00
24762;BME280;12865;51.934;10.330;2023-03-19T08:23:43;98967.03;;;10.80;100.00
24762;BME280;12865;51.934;10.330;2023-03-19T08:26:29;98963.97;;;10.85;100.00
24762;BME280;12865;51.934;10.330;2023-03-19T08:29:17;98968.38;;;10.94;100.00
24762;BME280;12865;51.934;10.330;2023-03-19T08:32:03;98964.69;;;11.05;100.00
24762;BME280;12865;51.934;10.330;2023-03-19T08:34:49;98960.28;;;11.13;100.00
24762;BME280;12865;51.934;10.330;2023-03-19T08:37:34;98964.31;;;11.17;100.00
24762;BME280;12865;51.934;10.330;2023-03-19T08:40:21;98959.78;;;11.27;100.00
24762;BME280;12865;51.934;10.330;2023-03-19T08:43:07;98958.72;;;11.38;100.00
24762;BME280;12865;51.934;10.330;2023-03-19T08:45:52;98953.31;;;11.48;100.00
24762;BME280;12865;51.934;10.330;2023-03-19T08:48:38;98955.13;;;11.65;100.00
24762;BME280;12865;51.934;10.330;2023-03-19T08:51:24;98965.16;;;11.80;100.00
24762;BME280;12865;51.934;10.330;2023-03-19T08:54:10;98957.50;;;12.03;100.00
24762;BME280;12865;51.934;10.330;2023-03-19T08:57:01;98954.34;;;12.08;100.00
24762;BME280;12865;51.934;10.330;2023-03-19T08:59:47;98952.66;;;12.25;100.00
24762;BME280;12865;51.934;10.330;2023-03-19T09:02:33;98948.28;;;12.49;100.00
24762;BME280;12865;51.934;10.330;2023-03-19T09:05:18;98956.78;;;12.45;100.00
24762;BME280;12865;51.934;10.330;2023-03-19T09:08:06;98958.19;;;12.57;100.00
24762;BME280;12865;51.934;10.330;2023-03-19T09:10:53;98954.09;;;12.71;100.00
24762;BME280;12865;51.934;10.330;2023-03-19T09:13:39;98965.03;;;12.85;100.00
24762;BME280;12865;51.934;10.330;2023-03-19T09:16:25;98955.69;;;12.97;100.00
24762;BME280;12865;51.934;10.330;2023-03-19T09:19:10;98965.84;;;13.20;100.00
24762;BME280;12865;51.934;10.330;2023-03-19T09:21:56;98963.44;;;13.51;100.00
24762;BME280;12865;51.934;10.330;2023-03-19T09:24:42;98964.81;;;13.79;100.00
24762;BME280;12865;51.934;10.330;2023-03-19T09:27:28;98962.97;;;14.04;100.00
24762;BME280;12865;51.934;10.330;2023-03-19T09:30:14;98966.63;;;14.35;100.00
24762;BME280;12865;51.934;10.330;2023-03-19T09:33:00;98971.34;;;14.49;100.00
24762;BME280;12865;51.934;10.330;2023-03-19T09:35:52;98973.19;;;14.41;100.00
24762;BME280;12865;51.934;10.330;2023-03-19T09:38:38;98970.94;;;14.69;100.00
24762;BME280;12865;51.934;10.330;2023-03-19T09:44:24;98972.50;;;15.02;100.00
24762;BME280;12865;51.934;10.330;2023-03-19T09:47:38;98969.97;;;15.09;96.48
24762;BME280;12865;51.934;10.330;2023-03-19T09:50:25;98970.56;;;15.27;96.81
24762;BME280;12865;51.934;10.330;2023-03-19T09:53:22;98965.06;;;15.43;99.30
24762;BME280;12865;51.934;10.330;2023-03-19T09:56:14;98965.75;;;15.45;92.57
24762;BME280;12865;51.934;10.330;2023-03-19T09:59:03;98966.94;;;15.74;99.53
24762;BME280;12865;51.934;10.330;2023-03-19T10:02:09;98970.81;;;15.71;91.07
24762;BME280;12865;51.934;10.330;2023-03-19T10:11:27;98965.09;;;15.97;90.87
24762;BME280;12865;51.934;10.330;2023-03-19T10:17:31;98963.25;;;16.12;86.56
24762;BME280;12865;51.934;10.330;2023-03-19T10:20:45;98970.97;;;16.15;83.04
24762;BME280;12865;51.934;10.330;2023-03-19T10:23:37;98969.81;;;15.95;80.87
24762;BME280;12865;51.934;10.330;2023-03-19T10:26:30;98971.06;;;15.84;79.84
24762;BME280;12865;51.934;10.330;2023-03-19T10:29:19;98973.09;;;15.82;79.38
24762;BME280;12865;51.934;10.330;2023-03-19T10:34:57;98965.63;;;15.92;79.86
24762;BME280;12865;51.934;10.330;2023-03-19T10:37:43;98964.16;;;15.90;79.34
24762;BME280;12865;51.934;10.330;2023-03-19T10:40:41;98970.53;;;15.89;82.61
24762;BME280;12865;51.934;10.330;2023-03-19T10:43:29;98970.66;;;15.95;82.49
24762;BME280;12865;51.934;10.330;2023-03-19T10:46:16;98970.31;;;16.13;78.31
24762;BME280;12865;51.934;10.330;2023-03-19T10:49:02;98970.59;;;16.03;78.01
24762;BME280;12865;51.934;10.330;2023-03-19T10:51:48;98964.81;;;16.29;77.87
24762;BME280;12865;51.934;10.330;2023-03-19T10:54:39;98964.25;;;16.34;76.15
24762;BME280;12865;51.934;10.330;2023-03-19T10:57:27;98969.63;;;16.34;74.88
24762;BME280;12865;51.934;10.330;2023-03-19T11:00:19;98965.88;;;16.20;75.39
24762;BME280;12865;51.934;10.330;2023-03-19T11:03:27;98964.94;;;16.13;76.65
24762;BME280;12865;51.934;10.330;2023-03-19T11:06:33;98976.25;;;16.08;77.11
24762;BME280;12865;51.934;10.330;2023-03-19T11:09:38;98972.38;;;16.11;77.36
24762;BME280;12865;51.934;10.330;2023-03-19T11:12:32;98966.09;;;15.96;75.02
24762;BME280;12865;51.934;10.330;2023-03-19T11:15:32;98966.88;;;15.82;75.78
24762;BME280;12865;51.934;10.330;2023-03-19T11:18:20;98962.41;;;15.97;75.79
24762;BME280;12865;51.934;10.330;2023-03-19T11:21:20;98973.28;;;16.03;77.17
24762;BME280;12865;51.934;10.330;2023-03-19T11:24:10;98972.00;;;16.14;73.28
24762;BME280;12865;51.934;10.330;2023-03-19T11:26:58;98970.53;;;16.12;74.93
24762;BME280;12865;51.934;10.330;2023-03-19T11:29:45;98983.13;;;16.11;75.62
24762;BME280;12865;51.934;10.330;2023-03-19T11:36:00;98972.94;;;16.21;75.16
24762;BME280;12865;51.934;10.330;2023-03-19T11:38:56;98976.13;;;16.25;74.71
24762;BME280;12865;51.934;10.330;2023-03-19T11:59:34;98978.66;;;16.56;71.10
24762;BME280;12865;51.934;10.330;2023-03-19T12:05:20;98981.81;;;16.44;69.92
24762;BME280;12865;51.934;10.330;2023-03-19T12:11:24;98973.91;;;16.43;70.90
24762;BME280;12865;51.934;10.330;2023-03-19T12:17:28;98978.88;;;16.69;71.16
24762;BME280;12865;51.934;10.330;2023-03-19T12:23:30;98975.34;;;16.68;71.22
24762;BME280;12865;51.934;10.330;2023-03-19T12:35:53;98975.00;;;16.34;69.27
24762;BME280;12865;51.934;10.330;2023-03-19T12:38:46;98961.56;;;16.48;70.95
24762;BME280;12865;51.934;10.330;2023-03-19T12:41:39;98966.28;;;16.69;68.55
24762;BME280;12865;51.934;10.330;2023-03-19T12:44:33;98960.97;;;16.76;69.27
24762;BME280;12865;51.934;10.330;2023-03-19T12:47:35;98962.00;;;17.04;69.42
24762;BME280;12865;51.934;10.330;2023-03-19T12:50:23;98954.31;;;17.01;67.88
24762;BME280;12865;51.934;10.330;2023-03-19T12:53:34;98957.84;;;17.02;70.25
24762;BME280;12865;51.934;10.330;2023-03-19T12:57:00;98948.84;;;16.95;67.14
24762;BME280;12865;51.934;10.330;2023-03-19T13:00:07;98942.88;;;16.70;68.34
24762;BME280;12865;51.934;10.330;2023-03-19T13:02:56;98954.13;;;16.73;68.86
24762;BME280;12865;51.934;10.330;2023-03-19T13:05:57;98953.69;;;16.32;68.42
24762;BME280;12865;51.934;10.330;2023-03-19T13:09:04;98955.25;;;16.41;70.61
24762;BME280;12865;51.934;10.330;2023-03-19T13:12:03;98966.75;;;16.35;70.27
24762;BME280;12865;51.934;10.330;2023-03-19T13:15:11;98959.34;;;16.37;71.10
24762;BME280;12865;51.934;10.330;2023-03-19T13:26:55;98949.25;;;16.02;72.32
24762;BME280;12865;51.934;10.330;2023-03-19T13:29:57;98947.00;;;15.91;73.09
24762;BME280;12865;51.934;10.330;2023-03-19T13:32:50;98949.84;;;15.89;74.42
24762;BME280;12865;51.934;10.330;2023-03-19T13:35:44;98951.53;;;15.90;75.31
24762;BME280;12865;51.934;10.330;2023-03-19T13:38:37;98948.13;;;15.96;74.93
24762;BME280;12865;51.934;10.330;2023-03-19T13:44:51;98971.00;;;15.69;80.47
24762;BME280;12865;51.934;10.330;2023-03-19T13:47:40;98974.09;;;15.27;87.75
24762;BME280;12865;51.934;10.330;2023-03-19T13:50:28;98981.38;;;14.64;87.97
24762;BME280;12865;51.934;10.330;2023-03-19T13:56:19;98974.88;;;14.42;91.95
24762;BME280;12865;51.934;10.330;2023-03-19T13:59:24;98968.31;;;14.12;93.35
24762;BME280;12865;51.934;10.330;2023-03-19T14:08:13;98971.84;;;14.04;100.00
24762;BME280;12865;51.934;10.330;2023-03-19T14:11:03;98957.09;;;14.16;100.00
24762;BME280;12865;51.934;10.330;2023-03-19T14:13:51;98968.63;;;14.25;100.00
24762;BME280;12865;51.934;10.330;2023-03-19T14:16:41;98956.06;;;14.34;98.37
24762;BME280;12865;51.934;10.330;2023-03-19T14:19:28;98953.03;;;14.37;99.16
24762;BME280;12865;51.934;10.330;2023-03-19T14:22:20;98945.81;;;14.37;100.00
24762;BME280;12865;51.934;10.330;2023-03-19T14:28:00;98950.00;;;14.64;100.00
24762;BME280;12865;51.934;10.330;2023-03-19T14:30:54;98952.25;;;14.91;100.00
24762;BME280;12865;51.934;10.330;2023-03-19T14:33:43;98946.31;;;15.04;96.42
24762;BME280;12865;51.934;10.330;2023-03-19T14:36:35;98951.28;;;15.15;95.74
24762;BME280;12865;51.934;10.330;2023-03-19T14:39:27;98932.84;;;15.20;94.50
24762;BME280;12865;51.934;10.330;2023-03-19T14:42:27;98938.38;;;15.19;93.26
24762;BME280;12865;51.934;10.330;2023-03-19T14:45:19;98936.28;;;15.29;93.37
24762;BME280;12865;51.934;10.330;2023-03-19T14:55:11;98943.25;;;15.15;90.58
24762;BME280;12865;51.934;10.330;2023-03-19T14:57:59;98942.59;;;15.13;91.19
24762;BME280;12865;51.934;10.330;2023-03-19T15:00:51;98949.97;;;15.11;92.43
24762;BME280;12865;51.934;10.330;2023-03-19T15:03:38;98949.56;;;14.91;94.98
24762;BME280;12865;51.934;10.330;2023-03-19T15:06:24;98942.72;;;14.81;95.16
24762;BME280;12865;51.934;10.330;2023-03-19T15:09:20;98945.41;;;14.81;98.19
24762;BME280;12865;51.934;10.330;2023-03-19T15:12:13;98936.88;;;14.77;98.36
24762;BME280;12865;51.934;10.330;2023-03-19T15:18:08;98942.66;;;14.97;100.00
24762;BME280;12865;51.934;10.330;2023-03-19T15:20:55;98933.44;;;15.30;100.00
24762;BME280;12865;51.934;10.330;2023-03-19T15:23:44;98942.81;;;15.65;100.00
24762;BME280;12865;51.934;10.330;2023-03-19T15:26:35;98940.72;;;15.76;92.80
24762;BME280;12865;51.934;10.330;2023-03-19T15:29:32;98945.91;;;16.00;93.57
24762;BME280;12865;51.934;10.330;2023-03-19T15:32:31;98938.72;;;15.92;86.63
24762;BME280;12865;51.934;10.330;2023-03-19T15:35:18;98933.88;;;16.10;86.51
24762;BME280;12865;51.934;10.330;2023-03-19T15:38:08;98939.06;;;16.12;82.41
24762;BME280;12865;51.934;10.330;2023-03-19T15:40:55;98937.47;;;16.03;83.01
24762;BME280;12865;51.934;10.330;2023-03-19T15:43:41;98940.56;;;15.92;84.42
24762;BME280;12865;51.934;10.330;2023-03-19T15:46:32;98937.31;;;15.82;82.66
24762;BME280;12865;51.934;10.330;2023-03-19T15:49:33;98941.56;;;15.53;80.62
24762;BME280;12865;51.934;10.330;2023-03-19T15:52:22;98940.84;;;15.51;80.51
24762;BME280;12865;51.934;10.330;2023-03-19T15:55:08;98943.13;;;15.40;80.20
24762;BME280;12865;51.934;10.330;2023-03-19T15:58:03;98936.31;;;15.21;80.72
24762;BME280;12865;51.934;10.330;2023-03-19T16:00:52;98944.75;;;15.18;84.21
24762;BME280;12865;51.934;10.330;2023-03-19T16:03:40;98944.44;;;15.13;85.06
24762;BME280;12865;51.934;10.330;2023-03-19T16:06:29;98949.47;;;15.08;83.40
24762;BME280;12865;51.934;10.330;2023-03-19T16:09:30;98951.53;;;15.06;84.58
24762;BME280;12865;51.934;10.330;2023-03-19T16:12:36;98959.13;;;14.86;83.47
24762;BME280;12865;51.934;10.330;2023-03-19T16:15:27;98956.31;;;14.79;84.04